Time;durP1;ratioP1;P1;durP2;ratioP2;P2;SDS_P1;SDS_P2;PMS_P1;PMS_P2;Temp;Humidity;BMP_temperature;BMP_pressure;BME280_temperature;BME280_humidity;BME280_pressure;Samples;Min_cycle;Max_cycle;Signal;HPM_P1;HPM_P2
2021/03/11 00:00:05;;;;;;;57.70;31.50;;;2.40;78.10;;;;;;5060971;28;20020;-70
2021/03/11 00:02:31;;;;;;;56.83;32.13;;;2.40;78.30;;;;;;5044345;28;20044;-69
2021/03/11 00:04:56;;;;;;;57.55;31.27;;;2.50;78.30;;;;;;5052196;28;20490;-69
2021/03/11 00:07:22;;;;;;;56.33;31.33;;;2.40;78.10;;;;;;5061013;28;20564;-69
2021/03/11 00:09:47;;;;;;;57.78;32.55;;;2.40;78.50;;;;;;5065969;28;20036;-69
2021/03/11 00:12:13;;;;;;;61.90;32.45;;;2.40;78.40;;;;;;5037376;28;20390;-69
2021/03/11 00:14:41;;;;;;;59.63;31.65;;;2.40;78.30;;;;;;5049236;28;20025;-70
2021/03/11 00:17:07;;;;;;;63.13;33.67;;;2.50;78.20;;;;;;5059996;28;20016;-71
2021/03/11 00:19:33;;;;;;;59.17;32.10;;;2.50;78.20;;;;;;5059780;28;20082;-70
2021/03/11 00:22:02;;;;;;;58.70;31.60;;;2.40;78.20;;;;;;5080599;28;20025;-70
2021/03/11 00:24:28;;;;;;;60.80;33.33;;;2.40;78.30;;;;;;5076481;28;20031;-69
2021/03/11 00:26:54;;;;;;;57.58;31.75;;;2.30;78.20;;;;;;5085197;28;20027;-69
2021/03/11 00:29:20;;;;;;;57.10;30.83;;;2.40;78.40;;;;;;5071136;28;20028;-71
2021/03/11 00:31:45;;;;;;;57.97;32.13;;;2.30;78.40;;;;;;5038081;28;20033;-71
2021/03/11 00:34:11;;;;;;;56.22;30.85;;;2.30;78.60;;;;;;5069815;28;20135;-70
2021/03/11 00:36:37;;;;;;;56.70;31.13;;;2.30;78.60;;;;;;5057081;28;20058;-70
2021/03/11 00:39:05;;;;;;;60.55;32.70;;;2.30;78.50;;;;;;5070467;28;20032;-70
2021/03/11 00:41:30;;;;;;;58.20;32.33;;;2.40;78.50;;;;;;5061005;28;20028;-70
2021/03/11 00:43:56;;;;;;;58.53;31.88;;;2.40;78.30;;;;;;5049574;28;20025;-70
2021/03/11 00:46:21;;;;;;;56.67;31.52;;;2.50;78.20;;;;;;5037265;28;20510;-69
2021/03/11 00:48:47;;;;;;;60.85;30.65;;;2.60;78.30;;;;;;5048065;28;20033;-69
2021/03/11 00:51:13;;;;;;;62.55;33.03;;;2.70;77.90;;;;;;5033997;28;20482;-70
2021/03/11 00:53:39;;;;;;;55.95;30.40;;;2.80;77.70;;;;;;5064559;28;20039;-70
2021/03/11 00:56:05;;;;;;;57.70;31.08;;;3.00;77.20;;;;;;5037190;28;20060;-70
2021/03/11 00:58:30;;;;;;;58.10;31.08;;;3.10;76.70;;;;;;5021157;28;20020;-69
2021/03/11 01:00:56;;;;;;;56.50;30.55;;;3.10;76.60;;;;;;5062153;28;20028;-69
2021/03/11 01:03:24;;;;;;;56.97;30.08;;;3.20;76.50;;;;;;5043304;28;20032;-70
2021/03/11 01:05:50;;;;;;;56.30;30.65;;;3.30;76.40;;;;;;5048174;28;20497;-70
2021/03/11 01:08:28;;;;;;;57.92;31.23;;;3.30;76.10;;;;;;5054575;28;20104;-70
2021/03/11 01:10:54;;;;;;;62.15;32.13;;;3.40;75.90;;;;;;5064835;28;20506;-68
2021/03/11 01:13:20;;;;;;;52.20;29.20;;;3.40;75.80;;;;;;5061640;28;20047;-67
2021/03/11 01:15:48;;;;;;;54.38;29.58;;;3.50;75.60;;;;;;5039562;28;20021;-68
2021/03/11 01:18:14;;;;;;;56.83;30.45;;;3.50;75.50;;;;;;5070383;28;20037;-68
2021/03/11 01:20:41;;;;;;;59.42;32.00;;;3.40;75.60;;;;;;5041761;28;20035;-68
2021/03/11 01:23:07;;;;;;;55.90;30.30;;;3.40;75.70;;;;;;5032031;28;20029;-68
2021/03/11 01:25:33;;;;;;;51.42;29.42;;;3.40;75.80;;;;;;5066891;28;20020;-68
2021/03/11 01:27:58;;;;;;;52.30;30.10;;;3.40;75.90;;;;;;5058629;28;20029;-69
2021/03/11 01:30:24;;;;;;;53.00;29.60;;;3.40;75.70;;;;;;5053189;28;20027;-69
2021/03/11 01:32:50;;;;;;;47.58;26.85;;;3.40;75.80;;;;;;5047367;28;20036;-68
2021/03/11 01:35:18;;;;;;;54.55;29.77;;;3.50;75.70;;;;;;5047035;28;20029;-69
2021/03/11 01:37:44;;;;;;;51.83;28.75;;;3.40;75.70;;;;;;5068007;28;20028;-69
2021/03/11 01:40:12;;;;;;;51.67;30.23;;;3.40;75.80;;;;;;5057749;28;20499;-69
2021/03/11 01:42:38;;;;;;;52.65;28.95;;;3.40;75.80;;;;;;5070102;28;20033;-69
2021/03/11 01:45:08;;;;;;;48.92;26.70;;;3.40;75.90;;;;;;5062710;28;20104;-69
2021/03/11 01:47:34;;;;;;;52.17;29.55;;;3.30;75.90;;;;;;5052330;28;20390;-68
2021/03/11 01:50:00;;;;;;;52.33;27.88;;;3.40;75.90;;;;;;5058300;28;20032;-69
2021/03/11 01:52:28;;;;;;;49.35;27.65;;;3.40;75.70;;;;;;5070615;28;20079;-69
2021/03/11 01:54:54;;;;;;;58.63;29.42;;;3.50;75.60;;;;;;5061309;28;20546;-69
2021/03/11 01:57:22;;;;;;;50.30;26.98;;;3.50;75.40;;;;;;5045942;28;20052;-68
2021/03/11 01:59:48;;;;;;;47.80;25.83;;;3.50;75.20;;;;;;5061376;28;20523;-68
2021/03/11 02:02:16;;;;;;;50.55;27.45;;;3.60;75.20;;;;;;5071430;28;20059;-68
2021/03/11 02:04:42;;;;;;;48.05;26.95;;;3.50;75.20;;;;;;5059421;28;20480;-69
2021/03/11 02:07:07;;;;;;;50.35;27.02;;;3.50;75.30;;;;;;5065962;28;20499;-71
2021/03/11 02:09:33;;;;;;;47.72;28.27;;;3.50;75.10;;;;;;5048855;28;20037;-67
2021/03/11 02:12:07;;;;;;;49.17;27.45;;;3.50;75.30;;;;;;5040629;28;20039;-69
2021/03/11 02:14:52;;;;;;;48.60;28.15;;;3.50;75.40;;;;;;5034163;28;20085;-69
2021/03/11 02:17:23;;;;;;;49.38;28.73;;;3.40;75.70;;;;;;5035791;28;20089;-69
2021/03/11 02:20:01;;;;;;;50.08;28.20;;;3.40;75.80;;;;;;5041282;28;20025;-68
2021/03/11 02:22:45;;;;;;;55.75;29.27;;;3.30;76.10;;;;;;5070024;28;20074;-68
2021/03/11 02:25:37;;;;;;;50.25;27.58;;;3.20;76.30;;;;;;5053786;28;20044;-69
2021/03/11 02:28:17;;;;;;;50.80;26.90;;;3.10;76.40;;;;;;5068230;28;20032;-69
2021/03/11 02:30:43;;;;;;;51.92;28.83;;;3.20;76.40;;;;;;5041858;28;20415;-69
2021/03/11 02:33:10;;;;;;;50.17;26.77;;;3.20;76.30;;;;;;5044270;28;20056;-69
2021/03/11 02:35:37;;;;;;;48.70;26.95;;;3.30;76.30;;;;;;5060769;28;20033;-70
2021/03/11 02:38:05;;;;;;;46.05;26.02;;;3.20;76.00;;;;;;5069345;28;20016;-69
2021/03/11 02:40:33;;;;;;;48.53;26.60;;;3.30;76.00;;;;;;5039144;28;20463;-71
2021/03/11 02:43:01;;;;;;;51.58;28.55;;;3.30;76.00;;;;;;5065806;28;20017;-70
2021/03/11 02:45:30;;;;;;;48.42;27.02;;;3.30;76.30;;;;;;5064244;28;20059;-70
2021/03/11 02:48:03;;;;;;;48.90;27.98;;;3.40;76.40;;;;;;5050832;28;20398;-68
2021/03/11 02:50:30;;;;;;;47.33;27.75;;;3.40;75.40;;;;;;5038519;28;20024;-69
2021/03/11 02:52:57;;;;;;;47.25;26.38;;;3.40;75.30;;;;;;5065764;28;20490;-68
2021/03/11 02:55:27;;;;;;;49.83;25.52;;;3.50;75.20;;;;;;5063811;28;20138;-68
2021/03/11 02:57:54;;;;;;;47.85;26.15;;;3.50;75.20;;;;;;5039456;28;20029;-68
2021/03/11 03:00:21;;;;;;;48.40;26.83;;;3.40;75.00;;;;;;5043761;28;20021;-68
2021/03/11 03:02:47;;;;;;;52.30;26.42;;;3.50;74.90;;;;;;5066879;28;20545;-68
2021/03/11 03:05:22;;;;;;;46.15;24.85;;;3.60;74.50;;;;;;5062407;28;20537;-67
2021/03/11 03:07:50;;;;;;;43.28;25.30;;;3.80;73.70;;;;;;5040421;28;20025;-68
2021/03/11 03:10:22;;;;;;;52.35;27.13;;;3.90;73.60;;;;;;5050737;28;20033;-68
2021/03/11 03:12:54;;;;;;;48.13;26.20;;;4.00;73.10;;;;;;5058226;28;20063;-67
2021/03/11 03:15:21;;;;;;;47.35;26.15;;;4.10;72.30;;;;;;5062024;28;20025;-68
2021/03/11 03:17:48;;;;;;;46.05;25.25;;;4.30;72.40;;;;;;5048063;28;20053;-68
2021/03/11 03:20:16;;;;;;;45.65;25.05;;;4.50;71.20;;;;;;5037846;28;20372;-67
2021/03/11 03:22:42;;;;;;;47.83;26.35;;;4.50;70.80;;;;;;5049329;28;20549;-67
2021/03/11 03:25:16;;;;;;;48.08;25.40;;;4.70;71.20;;;;;;5052174;28;20112;-67
2021/03/11 03:27:42;;;;;;;47.28;26.52;;;4.90;69.20;;;;;;5065093;28;20066;-67
2021/03/11 03:30:09;;;;;;;44.33;26.58;;;5.00;68.90;;;;;;5055374;28;20482;-68
2021/03/11 03:32:35;;;;;;;46.50;25.58;;;5.10;68.30;;;;;;5047628;28;20078;-69
2021/03/11 03:35:07;;;;;;;43.28;24.17;;;5.20;68.50;;;;;;5046403;28;20557;-66
2021/03/11 03:37:34;;;;;;;40.85;25.05;;;5.30;67.40;;;;;;5064031;28;20028;-68
2021/03/11 03:40:06;;;;;;;42.15;24.55;;;5.40;67.30;;;;;;5055601;28;20032;-67
2021/03/11 03:42:34;;;;;;;;;;;5.50;67.10;;;;;;5039709;28;20016;-68
2021/03/11 03:45:05;;;;;;;39.70;23.55;;;5.50;66.40;;;;;;5046533;28;19906;-68
2021/03/11 03:47:32;;;;;;;44.13;24.52;;;5.50;66.70;;;;;;5029594;28;20406;-67
2021/03/11 03:49:58;;;;;;;43.50;24.10;;;5.60;66.90;;;;;;5038190;28;20021;-67
2021/03/11 03:52:26;;;;;;;41.40;24.05;;;5.60;67.40;;;;;;5068176;28;20020;-68
2021/03/11 03:54:54;;;;;;;39.92;24.85;;;5.80;66.60;;;;;;5040625;28;20047;-67
2021/03/11 03:57:21;;;;;;;40.78;23.85;;;5.70;65.60;;;;;;5060991;28;20025;-67
2021/03/11 03:59:53;;;;;;;39.60;23.45;;;5.80;66.00;;;;;;5058641;28;20037;-68
2021/03/11 04:02:20;;;;;;;38.38;22.75;;;5.80;66.40;;;;;;5068241;28;20024;-67
2021/03/11 04:04:49;;;;;;;40.78;22.77;;;5.80;65.40;;;;;;5039262;28;20090;-68
2021/03/11 04:07:26;;;;;;;37.10;22.30;;;5.90;65.90;;;;;;5044319;28;20383;-68
2021/03/11 04:09:56;;;;;;;41.97;24.35;;;5.90;64.90;;;;;;5048684;28;20052;-68
2021/03/11 04:12:22;;;;;;;40.63;23.85;;;5.90;65.80;;;;;;5055483;28;20398;-69
2021/03/11 04:14:49;;;;;;;39.97;24.23;;;5.90;64.80;;;;;;5066476;28;20094;-68
2021/03/11 04:17:15;;;;;;;38.20;22.73;;;6.00;65.50;;;;;;5061307;28;20550;-68
2021/03/11 04:19:43;;;;;;;36.33;20.67;;;6.00;64.30;;;;;;5058222;28;20032;-68
2021/03/11 04:22:10;;;;;;;36.00;21.48;;;5.90;64.60;;;;;;5068051;28;20020;-68
2021/03/11 04:24:41;;;;;;;35.65;22.27;;;5.90;65.40;;;;;;5033523;28;20104;-68
2021/03/11 04:27:08;;;;;;;53.75;33.53;;;6.00;65.10;;;;;;5041857;28;20024;-69
2021/03/11 04:29:34;;;;;;;40.70;24.38;;;5.80;66.70;;;;;;5059372;28;20389;-68
2021/03/11 04:32:01;;;;;;;43.03;24.88;;;5.60;69.10;;;;;;5057496;28;20021;-69
2021/03/11 04:34:28;;;;;;;41.28;24.85;;;5.40;69.50;;;;;;5067630;28;20105;-68
2021/03/11 04:36:55;;;;;;;43.08;24.65;;;5.40;70.20;;;;;;5057718;28;20058;-69
2021/03/11 04:39:22;;;;;;;47.95;27.23;;;5.30;70.30;;;;;;5060599;28;20526;-67
2021/03/11 04:41:50;;;;;;;44.28;25.90;;;5.20;71.50;;;;;;5065432;28;20028;-68
2021/03/11 04:44:17;;;;;;;46.60;26.83;;;5.20;72.60;;;;;;5054417;28;20413;-68
2021/03/11 04:46:43;;;;;;;45.42;26.25;;;5.10;73.30;;;;;;5067019;28;20119;-68
2021/03/11 04:49:09;;;;;;;46.90;28.13;;;5.00;73.20;;;;;;5062452;28;20135;-68
2021/03/11 04:51:37;;;;;;;44.67;25.45;;;4.90;74.60;;;;;;5046520;28;20033;-69
2021/03/11 04:54:03;;;;;;;43.95;26.15;;;4.90;74.50;;;;;;5041136;28;20390;-69
2021/03/11 04:56:29;;;;;;;45.72;26.58;;;4.90;74.30;;;;;;5071593;28;20021;-69
2021/03/11 04:58:58;;;;;;;47.92;26.35;;;4.80;74.70;;;;;;5061888;28;20031;-68
2021/03/11 05:01:27;;;;;;;49.00;28.98;;;4.70;74.80;;;;;;5039643;28;20025;-68
2021/03/11 05:03:53;;;;;;;47.95;28.33;;;4.70;75.00;;;;;;5059920;28;20017;-68
2021/03/11 05:06:18;;;;;;;46.53;28.27;;;4.60;75.30;;;;;;5071092;28;20020;-68
2021/03/11 05:08:44;;;;;;;48.33;28.33;;;4.50;75.10;;;;;;5060173;28;20064;-69
2021/03/11 05:11:15;;;;;;;47.40;27.50;;;4.50;74.70;;;;;;5074836;28;20025;-69
2021/03/11 05:13:41;;;;;;;47.05;27.50;;;4.50;74.90;;;;;;5078793;28;20036;-70
2021/03/11 05:16:07;;;;;;;45.20;26.98;;;4.40;75.40;;;;;;5066262;28;20032;-72
2021/03/11 05:18:33;;;;;;;48.03;28.13;;;4.30;75.50;;;;;;5059696;28;20111;-69
2021/03/11 05:20:59;;;;;;;42.28;25.73;;;4.30;75.60;;;;;;5068656;28;20025;-69
2021/03/11 05:23:24;;;;;;;42.22;24.80;;;4.30;75.50;;;;;;5063117;28;20512;-67
2021/03/11 05:25:54;;;;;;;43.40;25.00;;;4.30;75.20;;;;;;5055217;28;20020;-68
2021/03/11 05:28:20;;;;;;;43.42;26.23;;;4.30;74.90;;;;;;5070925;28;20028;-68
2021/03/11 05:30:48;;;;;;;43.95;25.80;;;4.20;75.00;;;;;;5042283;28;20115;-66
2021/03/11 05:33:14;;;;;;;42.05;25.10;;;4.30;74.80;;;;;;5064357;28;20036;-66
2021/03/11 05:35:40;;;;;;;39.17;23.95;;;4.20;74.70;;;;;;5039919;28;20101;-68
2021/03/11 05:38:06;;;;;;;40.70;24.30;;;4.20;74.40;;;;;;5067135;28;20055;-69
2021/03/11 05:40:33;;;;;;;38.42;23.77;;;4.30;74.10;;;;;;5057959;28;20534;-68
2021/03/11 05:43:01;;;;;;;38.47;24.00;;;4.20;73.90;;;;;;5049087;28;20510;-67
2021/03/11 05:45:28;;;;;;;39.58;23.67;;;4.20;73.80;;;;;;5065471;28;20107;-68
2021/03/11 05:47:54;;;;;;;40.65;23.52;;;4.20;74.20;;;;;;5069669;28;20390;-68
2021/03/11 05:50:21;;;;;;;40.10;23.63;;;4.20;73.80;;;;;;5039476;28;20032;-67
2021/03/11 05:52:47;;;;;;;41.38;23.45;;;4.20;74.00;;;;;;5068175;28;20029;-68
2021/03/11 05:55:15;;;;;;;43.03;24.98;;;4.30;74.10;;;;;;5063010;28;20471;-68
2021/03/11 05:57:43;;;;;;;40.63;24.90;;;4.20;74.40;;;;;;5059942;28;20029;-67
2021/03/11 06:00:11;;;;;;;41.78;24.10;;;4.20;73.90;;;;;;5043347;28;20048;-69
2021/03/11 06:02:38;;;;;;;40.15;24.27;;;4.30;74.10;;;;;;5050931;28;20017;-68
2021/03/11 06:05:04;;;;;;;40.42;23.85;;;4.30;74.20;;;;;;5043108;28;20024;-68
2021/03/11 06:07:31;;;;;;;39.67;23.75;;;4.20;74.80;;;;;;5061620;28;20017;-67
2021/03/11 06:10:02;;;;;;;39.53;24.63;;;4.20;75.40;;;;;;5068684;28;20060;-67
2021/03/11 06:12:29;;;;;;;45.03;25.50;;;4.20;75.60;;;;;;5038875;28;20552;-68
2021/03/11 06:15:02;;;;;;;41.25;22.85;;;4.20;76.10;;;;;;5066907;28;20479;-68
2021/03/11 06:17:32;;;;;;;37.35;21.73;;;4.20;75.70;;;;;;5065125;28;20413;-69
2021/03/11 06:19:58;;;;;;;33.60;20.40;;;4.30;75.70;;;;;;5041922;28;20021;-67
2021/03/11 06:22:25;;;;;;;34.63;20.77;;;4.30;75.60;;;;;;5053669;28;20024;-67
2021/03/11 06:24:54;;;;;;;31.20;19.10;;;4.30;74.40;;;;;;5038315;28;20497;-68
2021/03/11 06:27:21;;;;;;;31.30;18.02;;;4.40;74.30;;;;;;5063998;28;20036;-70
2021/03/11 06:29:46;;;;;;;37.35;20.42;;;4.40;74.70;;;;;;5051641;28;20025;-68
2021/03/11 06:32:12;;;;;;;38.22;21.08;;;4.40;77.10;;;;;;5067426;28;20035;-67
2021/03/11 06:34:43;;;;;;;42.08;21.88;;;4.20;79.10;;;;;;5050047;28;20031;-70
2021/03/11 06:37:15;;;;;;;57.28;26.77;;;4.00;81.40;;;;;;5044196;28;20161;-68
2021/03/11 06:39:43;;;;;;;58.28;27.73;;;3.70;85.00;;;;;;5060926;28;20082;-70
2021/03/11 06:42:10;;;;;;;60.92;29.20;;;3.60;87.00;;;;;;5053569;28;20490;-69
2021/03/11 06:44:44;;;;;;;65.72;30.70;;;3.50;87.30;;;;;;5058687;28;20049;-68
2021/03/11 06:47:17;;;;;;;79.57;33.08;;;3.50;88.00;;;;;;5070452;28;20146;-68
2021/03/11 06:50:00;;;;;;;73.85;35.05;;;3.40;88.20;;;;;;5060855;28;20367;-68
2021/03/11 06:52:27;;;;;;;77.90;34.42;;;3.50;89.00;;;;;;5068963;28;20025;-69
2021/03/11 06:55:20;;;;;;;79.00;36.70;;;3.50;88.50;;;;;;5058866;28;20029;-69
2021/03/11 06:57:46;;;;;;;88.45;39.00;;;3.60;89.10;;;;;;5054931;28;20029;-70
2021/03/11 07:00:15;;;;;;;95.38;39.58;;;3.50;88.70;;;;;;5060266;28;20013;-66
2021/03/11 07:02:54;;;;;;;70.82;34.92;;;3.50;88.60;;;;;;5049544;28;20168;-68
2021/03/11 07:05:22;;;;;;;88.97;38.92;;;3.60;87.80;;;;;;5044808;28;20459;-68
2021/03/11 07:07:48;;;;;;;79.13;35.97;;;3.70;88.60;;;;;;5039971;28;20568;-67
2021/03/11 07:10:26;;;;;;;95.25;42.38;;;3.70;87.00;;;;;;5069475;28;20040;-67
2021/03/11 07:12:57;;;;;;;83.65;40.88;;;3.80;88.20;;;;;;5058963;28;20362;-71
2021/03/11 07:15:24;;;;;;;79.10;38.55;;;3.80;87.50;;;;;;5054151;28;20021;-68
2021/03/11 07:17:51;;;;;;;77.22;39.55;;;3.80;86.70;;;;;;5057091;28;20029;-68
2021/03/11 07:20:17;;;;;;;83.75;39.53;;;3.80;87.20;;;;;;5050384;28;20099;-68
2021/03/11 07:22:58;;;;;;;74.07;37.58;;;3.80;86.80;;;;;;5039164;28;20024;-68
2021/03/11 07:25:26;;;;;;;75.95;37.75;;;3.90;87.20;;;;;;5045332;28;20070;-69
2021/03/11 07:27:53;;;;;;;67.10;34.15;;;3.90;86.80;;;;;;5038894;28;20108;-69
2021/03/11 07:30:19;;;;;;;75.22;37.83;;;3.90;86.00;;;;;;5039958;28;20068;-69
2021/03/11 07:32:46;;;;;;;80.20;37.47;;;3.90;86.90;;;;;;5048407;28;20071;-69
2021/03/11 07:35:18;;;;;;;68.85;34.60;;;4.00;86.90;;;;;;5060847;28;20510;-69
2021/03/11 07:37:49;;;;;;;65.38;34.08;;;4.10;86.90;;;;;;5057717;28;20417;-69
2021/03/11 07:40:16;;;;;;;69.85;37.78;;;4.00;86.10;;;;;;5050164;28;20198;-69
2021/03/11 07:42:43;;;;;;;64.82;34.55;;;4.00;86.30;;;;;;5056834;28;20074;-70
2021/03/11 07:45:13;;;;;;;58.63;31.08;;;4.00;86.30;;;;;;5044988;28;20017;-70
2021/03/11 07:47:40;;;;;;;59.15;32.85;;;4.10;85.20;;;;;;5064046;28;20016;-68
2021/03/11 07:50:11;;;;;;;58.15;30.50;;;4.20;85.50;;;;;;5020305;28;20021;-70
2021/03/11 07:52:40;;;;;;;59.95;32.42;;;4.20;85.20;;;;;;5067540;28;20051;-70
2021/03/11 07:55:08;;;;;;;56.20;32.28;;;4.20;85.20;;;;;;5042278;28;20104;-69
2021/03/11 07:57:44;;;;;;;52.95;30.27;;;4.30;84.40;;;;;;5059227;28;20025;-70
2021/03/11 08:00:12;;;;;;;50.22;29.35;;;4.30;83.40;;;;;;5035146;28;20108;-69
2021/03/11 08:02:44;;;;;;;54.83;31.98;;;4.30;84.00;;;;;;5066336;28;20108;-69
2021/03/11 08:05:11;;;;;;;49.83;30.10;;;4.40;83.80;;;;;;5042585;28;20119;-70
2021/03/11 08:07:37;;;;;;;48.70;30.20;;;4.50;83.60;;;;;;5058748;28;20032;-69
2021/03/11 08:10:20;;;;;;;50.45;30.00;;;4.50;83.50;;;;;;5033729;28;20632;-70
2021/03/11 08:12:50;;;;;;;50.72;29.40;;;4.50;82.90;;;;;;5042913;28;20027;-70
2021/03/11 08:15:16;;;;;;;50.33;29.00;;;4.50;83.10;;;;;;5044029;28;20052;-67
2021/03/11 08:17:47;;;;;;;48.33;27.92;;;4.60;83.00;;;;;;5046505;28;20020;-69
2021/03/11 08:20:19;;;;;;;50.67;29.80;;;4.70;82.80;;;;;;5054622;28;20494;-68
2021/03/11 08:22:55;;;;;;;42.50;24.92;;;4.80;82.70;;;;;;5065746;28;20363;-69
2021/03/11 08:25:33;;;;;;;43.30;25.40;;;4.90;81.90;;;;;;5043836;28;20111;-69
2021/03/11 08:28:08;;;;;;;40.30;23.35;;;5.10;82.60;;;;;;5043178;28;20024;-70
2021/03/11 08:30:40;;;;;;;67.05;34.97;;;5.20;80.90;;;;;;5046292;28;20020;-69
2021/03/11 08:33:10;;;;;;;36.38;22.33;;;5.40;80.40;;;;;;5052399;28;20025;-70
2021/03/11 08:35:40;;;;;;;54.58;29.15;;;5.60;79.00;;;;;;5060674;28;20021;-71
2021/03/11 08:38:21;;;;;;;100.63;52.25;;;5.90;77.30;;;;;;5071044;28;20028;-71
2021/03/11 08:41:04;;;;;;;60.72;35.20;;;6.10;79.70;;;;;;5045793;28;20033;-69
2021/03/11 08:43:39;;;;;;;57.92;34.22;;;6.30;77.30;;;;;;5065928;28;20309;-68
2021/03/11 08:46:11;;;;;;;44.30;25.73;;;6.40;76.20;;;;;;5074164;28;20020;-69
2021/03/11 08:49:03;;;;;;;42.22;25.65;;;6.50;75.20;;;;;;5028620;28;20027;-70
2021/03/11 08:51:29;;;;;;;85.10;46.88;;;6.60;74.90;;;;;;5066188;28;20078;-70
2021/03/11 08:53:59;;;;;;;59.03;36.72;;;6.70;75.30;;;;;;5072784;28;20563;-70
2021/03/11 08:56:27;;;;;;;50.28;27.60;;;6.80;74.70;;;;;;5055910;28;20079;-68
2021/03/11 08:58:59;;;;;;;56.08;34.30;;;6.90;72.40;;;;;;5064332;28;20049;-70
2021/03/11 09:01:34;;;;;;;54.13;32.75;;;7.00;74.20;;;;;;5066782;28;20387;-68
2021/03/11 09:04:00;;;;;;;31.45;19.85;;;7.00;72.60;;;;;;5069144;28;20028;-70
2021/03/11 09:06:50;;;;;;;57.00;34.03;;;7.10;72.60;;;;;;5073783;28;20023;-72
2021/03/11 09:09:37;;;;;;;49.80;29.27;;;7.20;74.20;;;;;;5067628;28;20063;-71
2021/03/11 09:12:07;;;;;;;30.52;20.17;;;7.30;72.00;;;;;;5047399;28;20037;-68
2021/03/11 09:14:35;;;;;;;54.47;31.65;;;7.30;71.40;;;;;;5045839;28;20036;-70
2021/03/11 09:17:08;;;;;;;29.25;18.13;;;7.40;72.50;;;;;;5068391;28;20103;-68
2021/03/11 09:19:42;;;;;;;87.75;45.83;;;7.40;72.40;;;;;;5069538;28;20036;-70
2021/03/11 09:22:22;;;;;;;75.25;37.83;;;7.40;72.30;;;;;;5043326;28;20021;-71
2021/03/11 09:25:07;;;;;;;163.50;69.25;;;7.30;72.30;;;;;;5072105;28;20021;-69
2021/03/11 09:27:54;;;;;;;91.20;43.10;;;7.40;72.60;;;;;;5051297;28;20025;-69
2021/03/11 09:30:26;;;;;;;35.13;21.73;;;7.50;71.40;;;;;;5060976;28;20074;-69
2021/03/11 09:32:51;;;;;;;48.55;24.55;;;7.50;70.70;;;;;;5070960;28;20017;-69
2021/03/11 09:35:17;;;;;;;31.67;20.23;;;7.50;71.60;;;;;;5064804;28;20433;-69
2021/03/11 09:38:01;;;;;;;43.58;22.90;;;7.60;70.90;;;;;;5069731;28;20078;-68
2021/03/11 09:40:34;;;;;;;53.30;29.08;;;7.60;71.50;;;;;;5057769;28;20024;-69
2021/03/11 09:43:15;;;;;;;88.75;46.63;;;7.70;72.50;;;;;;5066740;28;20025;-69
2021/03/11 09:45:51;;;;;;;136.05;67.72;;;7.90;71.70;;;;;;5049632;28;20611;-70
2021/03/11 09:48:32;;;;;;;119.47;57.90;;;8.00;71.80;;;;;;5039916;28;20055;-68
2021/03/11 09:51:12;;;;;;;120.63;58.88;;;8.10;70.90;;;;;;5067592;28;20111;-69
2021/03/11 09:53:37;;;;;;;75.30;37.45;;;8.10;72.50;;;;;;5067504;28;20036;-69
2021/03/11 09:56:05;;;;;;;83.00;40.35;;;8.10;71.40;;;;;;5059050;28;20040;-70
2021/03/11 09:58:31;;;;;;;30.90;17.98;;;8.10;72.90;;;;;;5044728;28;20021;-69
2021/03/11 10:00:57;;;;;;;38.55;22.88;;;8.10;70.90;;;;;;5087902;28;20029;-70
2021/03/11 10:03:30;;;;;;;31.60;19.27;;;8.10;70.80;;;;;;5093872;28;20052;-69
2021/03/11 10:06:01;;;;;;;23.67;16.42;;;8.10;71.80;;;;;;5072923;28;20028;-70
2021/03/11 10:08:38;;;;;;;24.33;15.85;;;8.10;71.10;;;;;;5058248;28;20103;-68
2021/03/11 10:11:11;;;;;;;32.72;18.90;;;8.20;71.30;;;;;;5048813;28;20581;-69
2021/03/11 10:13:42;;;;;;;26.48;16.83;;;8.30;70.60;;;;;;5067068;28;20658;-69
2021/03/11 10:16:09;;;;;;;21.77;14.82;;;8.30;70.50;;;;;;5057627;28;20036;-68
2021/03/11 10:18:36;;;;;;;21.42;13.88;;;8.40;69.50;;;;;;5070018;28;20081;-68
2021/03/11 10:21:08;;;;;;;25.50;15.90;;;8.50;70.40;;;;;;5062039;28;20031;-69
2021/03/11 10:23:38;;;;;;;38.95;21.58;;;8.50;69.20;;;;;;5061909;28;20032;-69
2021/03/11 10:26:29;;;;;;;21.98;15.05;;;8.60;69.30;;;;;;5051978;28;20137;-68
2021/03/11 10:29:16;;;;;;;33.47;19.27;;;9.00;68.00;;;;;;5030106;28;20040;-69
2021/03/11 10:31:42;;;;;;;30.40;13.98;;;9.50;67.90;;;;;;5042562;28;20056;-71
2021/03/11 10:34:10;;;;;;;41.17;23.33;;;9.70;65.60;;;;;;5050917;28;20055;-70
2021/03/11 10:36:36;;;;;;;27.27;17.35;;;9.80;66.90;;;;;;5057108;28;20017;-69
2021/03/11 10:39:08;;;;;;;24.02;15.02;;;9.80;66.30;;;;;;5065471;28;20499;-67
2021/03/11 10:41:34;;;;;;;;;;;9.90;65.20;;;;;;5066017;28;20029;-73
2021/03/11 10:44:09;;;;;;;27.38;17.35;;;9.90;67.00;;;;;;5039553;28;20054;-69
2021/03/11 10:46:38;;;;;;;32.03;19.08;;;9.80;66.90;;;;;;5023389;28;20115;-70
2021/03/11 10:49:04;;;;;;;72.82;45.25;;;9.70;66.80;;;;;;5064474;28;20028;-69
2021/03/11 10:51:33;;;;;;;24.00;14.80;;;9.60;66.70;;;;;;5046660;28;20020;-68
2021/03/11 10:53:59;;;;;;;88.10;52.08;;;9.50;68.30;;;;;;5057151;28;20025;-69
2021/03/11 10:56:26;;;;;;;95.80;50.38;;;9.40;67.80;;;;;;5069222;28;20374;-70
2021/03/11 10:59:06;;;;;;;81.75;44.90;;;9.60;68.30;;;;;;5059272;28;20031;-69
2021/03/11 11:01:33;;;;;;;100.43;59.42;;;9.60;70.30;;;;;;5060420;28;20033;-70
2021/03/11 11:04:02;;;;;;;92.97;52.00;;;9.70;71.90;;;;;;5045416;28;20028;-71
2021/03/11 11:06:30;;;;;;;95.45;51.33;;;9.60;74.80;;;;;;5068025;28;20017;-70
2021/03/11 11:08:56;;;;;;;54.35;32.08;;;9.50;76.20;;;;;;5058583;28;20633;-69
2021/03/11 11:11:22;;;;;;;25.27;15.35;;;9.30;78.00;;;;;;5061022;28;20037;-71
2021/03/11 11:13:48;;;;;;;15.00;10.65;;;8.90;78.30;;;;;;5047351;28;20028;-70
2021/03/11 11:16:16;;;;;;;26.70;17.13;;;8.70;79.20;;;;;;5036858;28;20028;-70
2021/03/11 11:18:43;;;;;;;45.28;18.38;;;8.30;79.90;;;;;;5066936;28;20040;-68
2021/03/11 11:21:09;;;;;;;28.73;20.27;;;8.00;81.60;;;;;;5043325;28;20047;-69
2021/03/11 11:23:34;;;;;;;31.48;20.23;;;7.80;84.50;;;;;;5059828;28;20643;-69
2021/03/11 11:26:00;;;;;;;37.60;24.13;;;7.60;84.40;;;;;;5067947;28;20127;-70
2021/03/11 11:28:28;;;;;;;43.00;26.25;;;7.50;85.70;;;;;;5055045;28;20016;-70
2021/03/11 11:30:55;;;;;;;43.53;28.88;;;7.40;85.60;;;;;;5065545;28;20025;-71
2021/03/11 11:33:21;;;;;;;46.13;28.88;;;7.20;84.20;;;;;;5044867;28;20521;-70
2021/03/11 11:35:49;;;;;;;49.58;31.95;;;7.00;84.20;;;;;;5056954;28;20052;-70
2021/03/11 11:38:15;;;;;;;47.33;29.17;;;7.00;85.10;;;;;;5050651;28;20025;-70
2021/03/11 11:40:41;;;;;;;43.63;28.98;;;6.80;83.40;;;;;;5057466;28;20032;-69
2021/03/11 11:43:07;;;;;;;57.05;33.30;;;6.70;83.90;;;;;;5045285;28;20027;-70
2021/03/11 11:45:32;;;;;;;54.97;34.22;;;6.70;84.80;;;;;;5046332;28;20031;-71
2021/03/11 11:47:58;;;;;;;48.45;30.33;;;6.60;84.50;;;;;;5055758;28;20067;-69
2021/03/11 11:50:27;;;;;;;49.03;29.45;;;6.70;84.50;;;;;;5070062;28;20407;-76
2021/03/11 11:52:54;;;;;;;53.58;33.15;;;6.70;84.00;;;;;;5042403;28;20031;-70
2021/03/11 11:55:20;;;;;;;60.60;35.72;;;6.70;84.40;;;;;;5043917;28;20033;-74
2021/03/11 11:57:48;;;;;;;77.95;42.58;;;6.70;84.90;;;;;;5065681;28;20037;-72
2021/03/11 12:00:16;;;;;;;70.10;41.30;;;6.80;85.20;;;;;;5055375;28;20018;-70
2021/03/11 12:02:42;;;;;;;51.80;33.00;;;7.00;85.00;;;;;;5047889;28;20112;-72
2021/03/11 12:05:08;;;;;;;45.38;30.45;;;7.00;83.70;;;;;;5060409;28;20059;-70
2021/03/11 12:07:35;;;;;;;45.42;30.45;;;7.20;83.60;;;;;;5059123;28;20025;-71
2021/03/11 12:10:04;;;;;;;46.50;31.40;;;7.30;83.30;;;;;;5049672;28;20036;-71
2021/03/11 12:12:30;;;;;;;51.55;31.92;;;7.50;83.50;;;;;;5020969;28;20050;-70
2021/03/11 12:14:58;;;;;;;48.00;30.02;;;7.80;84.00;;;;;;5047326;28;20059;-71
2021/03/11 12:17:23;;;;;;;38.55;25.77;;;8.00;82.40;;;;;;5051564;28;20029;-69
2021/03/11 12:19:49;;;;;;;42.53;27.52;;;8.10;80.60;;;;;;5051869;28;20124;-71
2021/03/11 12:22:15;;;;;;;37.10;25.30;;;8.10;80.00;;;;;;5068382;28;20455;-72
2021/03/11 12:24:40;;;;;;;45.55;29.25;;;8.10;80.90;;;;;;5056616;28;20082;-75
2021/03/11 12:27:06;;;;;;;28.58;20.08;;;8.20;81.10;;;;;;5044878;28;20574;-71
2021/03/11 12:29:32;;;;;;;42.40;27.60;;;8.30;80.00;;;;;;5063607;28;20516;-69
2021/03/11 12:31:58;;;;;;;35.33;23.35;;;8.40;80.90;;;;;;5055807;28;20044;-70
2021/03/11 12:34:23;;;;;;;29.35;21.20;;;8.70;81.70;;;;;;5049808;28;20036;-71
2021/03/11 12:36:49;;;;;;;26.33;19.13;;;9.20;80.20;;;;;;5057125;28;20033;-70
2021/03/11 12:39:15;;;;;;;21.05;14.32;;;9.70;79.70;;;;;;5061532;28;20025;-70
2021/03/11 12:41:40;;;;;;;16.23;10.65;;;10.10;76.20;;;;;;5046417;28;20128;-70
2021/03/11 12:44:06;;;;;;;18.02;11.10;;;10.30;74.80;;;;;;5054725;28;20483;-71
2021/03/11 12:46:34;;;;;;;19.95;12.30;;;10.50;73.40;;;;;;5067516;28;20368;-74